Time;durP1;ratioP1;P1;durP2;ratioP2;P2;SDS_P1;SDS_P2;PMS_P1;PMS_P2;Temp;Humidity;BMP_temperature;BMP_pressure;BME280_temperature;BME280_humidity;BME280_pressure;Samples;Min_cycle;Max_cycle;Signal;HPM_P1;HPM_P2
2021/06/17 00:01:17;;;;;;;;;;;21.20;66.90;;;;;;5054886;28;19999;-73
2021/06/17 00:03:42;;;;;;;;;;;21.20;66.60;;;;;;5059490;28;19974;-73
2021/06/17 00:06:08;;;;;;;;;;;21.30;66.60;;;;;;5069655;28;19917;-74
2021/06/17 00:08:33;;;;;;;;;;;21.30;66.20;;;;;;5053774;28;19921;-74
2021/06/17 00:10:59;;;;;;;;;;;21.30;66.00;;;;;;5055276;28;19916;-74
2021/06/17 00:13:29;;;;;;;;;;;21.30;66.10;;;;;;5068031;28;19948;-74
2021/06/17 00:15:56;;;;;;;;;;;21.30;65.90;;;;;;5055108;28;20003;-74
2021/06/17 00:18:22;;;;;;;;;;;21.20;66.30;;;;;;5055164;28;19971;-74
2021/06/17 00:20:48;;;;;;;;;;;21.20;66.00;;;;;;5048486;28;20272;-74
2021/06/17 00:23:14;;;;;;;;;;;21.30;65.70;;;;;;5051842;28;19928;-74
2021/06/17 00:25:40;;;;;;;;;;;21.40;65.50;;;;;;5053312;28;19913;-74
2021/06/17 00:28:06;;;;;;;;;;;21.30;65.70;;;;;;5059491;28;19965;-74
2021/06/17 00:30:31;;;;;;;;;;;21.30;65.70;;;;;;5049050;28;19916;-74
2021/06/17 00:32:58;;;;;;;;;;;21.20;66.10;;;;;;5054851;28;20305;-73
2021/06/17 00:35:24;;;;;;;;;;;21.20;65.60;;;;;;5049942;28;19916;-72
2021/06/17 00:37:50;;;;;;;;;;;21.20;65.10;;;;;;5055484;28;19917;-73
2021/06/17 00:40:16;;;;;;;;;;;21.30;64.70;;;;;;5036827;28;19913;-73
2021/06/17 00:42:45;;;;;;;;;;;21.20;64.50;;;;;;5062152;28;19948;-73
2021/06/17 00:45:12;;;;;;;;;;;21.20;64.80;;;;;;5055302;28;19912;-74
2021/06/17 00:47:38;;;;;;;;;;;21.20;65.90;;;;;;5064758;28;19917;-74
2021/06/17 00:50:05;;;;;;;;;;;21.00;65.80;;;;;;5038384;28;19955;-73
2021/06/17 00:52:30;;;;;;;;;;;21.10;65.30;;;;;;5044756;28;19964;-75
2021/06/17 00:54:57;;;;;;;;;;;21.10;64.30;;;;;;5057585;28;20013;-75
2021/06/17 00:57:23;;;;;;;;;;;21.30;63.90;;;;;;5054552;28;19912;-74
2021/06/17 00:59:48;;;;;;;;;;;21.40;64.00;;;;;;5059261;28;19935;-74
2021/06/17 01:02:14;;;;;;;;;;;21.40;64.10;;;;;;5058676;28;19913;-74
2021/06/17 01:04:40;;;;;;;;;;;21.30;64.80;;;;;;5062908;28;19912;-74
2021/06/17 01:07:06;;;;;;;;;;;21.30;65.10;;;;;;5078214;28;20249;-74
2021/06/17 01:09:44;;;;;;;;;;;21.40;65.00;;;;;;5039536;28;19963;-74
2021/06/17 01:12:14;;;;;;;;;;;21.40;65.30;;;;;;5060080;28;19917;-74
2021/06/17 01:14:42;;;;;;;;;;;21.40;64.90;;;;;;5061880;28;20015;-74
2021/06/17 01:17:09;;;;;;;;;;;21.40;65.30;;;;;;5060962;28;19919;-74
2021/06/17 01:19:55;;;;;;;;;;;21.30;65.60;;;;;;5030543;28;19916;-74
2021/06/17 01:22:42;;;;;;;;;;;21.30;65.50;;;;;;5057280;28;20002;-74
2021/06/17 01:25:17;;;;;;;;;;;21.20;65.80;;;;;;5051724;28;19921;-74
2021/06/17 01:27:55;;;;;;;;;;;21.20;66.50;;;;;;5074890;28;19966;-74
2021/06/17 01:30:22;;;;;;;;;;;21.20;66.00;;;;;;5052533;28;19916;-74
2021/06/17 01:32:50;;;;;;;;;;;21.10;66.70;;;;;;5059368;28;19971;-74
2021/06/17 01:35:17;;;;;;;;;;;21.10;66.50;;;;;;5058343;28;19924;-75
2021/06/17 01:37:43;;;;;;;;;;;21.00;66.80;;;;;;5054816;28;19928;-73
2021/06/17 01:40:09;;;;;;;;;;;21.10;66.70;;;;;;5058338;28;19913;-73
2021/06/17 01:42:36;;;;;;;;;;;21.10;66.50;;;;;;5061091;28;19913;-73
2021/06/17 01:45:02;;;;;;;;;;;21.20;66.70;;;;;;5061769;28;19913;-74
2021/06/17 01:47:28;;;;;;;;;;;21.10;66.90;;;;;;5040452;28;19974;-73
2021/06/17 01:49:54;;;;;;;;;;;21.10;67.10;;;;;;5040610;28;19916;-74
2021/06/17 01:52:23;;;;;;;;;;;21.00;67.10;;;;;;5052604;28;19921;-74
2021/06/17 01:54:49;;;;;;;;;;;21.00;67.50;;;;;;5057281;28;19916;-74
2021/06/17 01:57:15;;;;;;;;;;;21.00;67.50;;;;;;5039699;28;19952;-74
2021/06/17 01:59:42;;;;;;;;;;;20.90;67.90;;;;;;5053058;28;20356;-74
2021/06/17 02:02:08;;;;;;;;;;;20.80;68.10;;;;;;5058708;28;19912;-74
2021/06/17 02:04:34;;;;;;;;;;;20.90;68.30;;;;;;5055619;28;19943;-74
2021/06/17 02:07:00;;;;;;;;;;;20.80;68.50;;;;;;5040087;28;20294;-74
2021/06/17 02:09:26;;;;;;;;;;;20.80;68.80;;;;;;5056593;28;19959;-74
2021/06/17 02:11:52;;;;;;;;;;;20.70;68.70;;;;;;5054936;28;19916;-74
2021/06/17 02:14:17;;;;;;;;;;;20.60;69.20;;;;;;5057728;28;19966;-73
2021/06/17 02:16:44;;;;;;;;;;;20.60;69.10;;;;;;5059096;28;20309;-74
2021/06/17 02:19:15;;;;;;;;;;;20.60;69.10;;;;;;5058940;28;19913;-73
2021/06/17 02:21:42;;;;;;;;;;;20.60;69.20;;;;;;5054869;28;19970;-74
2021/06/17 02:24:08;;;;;;;;;;;20.60;69.00;;;;;;5058662;28;19959;-73
2021/06/17 02:26:38;;;;;;;;;;;20.70;68.90;;;;;;5039842;28;20324;-75
2021/06/17 02:29:04;;;;;;;;;;;20.80;68.80;;;;;;5039793;28;19921;-74
2021/06/17 02:31:31;;;;;;;;;;;20.80;68.80;;;;;;5049974;28;20209;-74
2021/06/17 02:33:57;;;;;;;;;;;20.80;68.90;;;;;;5050232;28;19959;-73
2021/06/17 02:36:26;;;;;;;;;;;20.80;68.90;;;;;;5056166;28;20355;-74
2021/06/17 02:38:58;;;;;;;;;;;20.70;68.80;;;;;;5057487;28;19909;-74
2021/06/17 02:41:24;;;;;;;;;;;20.70;69.40;;;;;;5051431;28;19952;-75
2021/06/17 02:43:52;;;;;;;;;;;20.60;69.70;;;;;;5069181;28;20393;-74
2021/06/17 02:46:18;;;;;;;;;;;20.60;70.20;;;;;;5059003;28;19944;-74
2021/06/17 02:48:43;;;;;;;;;;;20.50;70.00;;;;;;5058450;28;19970;-74
2021/06/17 02:51:09;;;;;;;;;;;20.50;70.50;;;;;;5061819;28;19932;-74
2021/06/17 02:53:34;;;;;;;;;;;20.40;70.90;;;;;;5039285;28;19916;-74
2021/06/17 02:56:02;;;;;;;;;;;20.20;72.30;;;;;;5056574;28;20260;-74
2021/06/17 02:58:46;;;;;;;;;;;19.90;72.80;;;;;;5074046;28;19913;-74
2021/06/17 03:01:27;;;;;;;;;;;19.50;73.60;;;;;;5064851;28;19913;-74
2021/06/17 03:03:55;;;;;;;;;;;19.20;75.60;;;;;;5042526;28;20020;-74
2021/06/17 03:06:40;;;;;;;;;;;18.90;76.80;;;;;;5055876;28;19920;-74
2021/06/17 03:09:08;;;;;;;;;;;18.70;77.90;;;;;;5058819;28;19927;-74
2021/06/17 03:11:35;;;;;;;;;;;18.40;78.10;;;;;;5049117;28;19917;-74
2021/06/17 03:14:06;;;;;;;;;;;18.20;79.00;;;;;;5039703;28;20318;-73
2021/06/17 03:16:35;;;;;;;;;;;18.20;79.80;;;;;;5065049;28;20016;-74
2021/06/17 03:19:01;;;;;;;;;;;18.10;80.20;;;;;;5038851;28;20075;-74
2021/06/17 03:21:32;;;;;;;;;;;18.00;80.60;;;;;;5054275;28;19920;-74
2021/06/17 03:23:58;;;;;;;;;;;17.90;80.40;;;;;;5056161;28;19920;-73
2021/06/17 03:26:25;;;;;;;;;;;17.90;81.10;;;;;;5056320;28;19952;-74
2021/06/17 03:28:52;;;;;;;;;;;17.80;82.10;;;;;;5056017;28;19916;-74
2021/06/17 03:31:17;;;;;;;;;;;17.70;83.20;;;;;;5061257;28;20309;-73
2021/06/17 03:33:43;;;;;;;;;;;17.50;83.10;;;;;;5055696;28;19924;-74
2021/06/17 03:36:10;;;;;;;;;;;17.50;83.20;;;;;;5054785;28;19913;-73
2021/06/17 03:38:37;;;;;;;;;;;17.50;83.10;;;;;;5055820;28;19919;-76
2021/06/17 03:41:03;;;;;;;;;;;17.60;83.70;;;;;;5054947;28;19913;-75
2021/06/17 03:43:29;;;;;;;;;;;17.60;82.50;;;;;;5056011;28;19923;-75
2021/06/17 03:45:56;;;;;;;;;;;17.70;82.40;;;;;;5056327;28;20006;-74
2021/06/17 03:48:22;;;;;;;;;;;17.70;82.10;;;;;;5055257;28;20371;-74
2021/06/17 03:50:47;;;;;;;;;;;17.80;82.10;;;;;;5041630;28;19913;-75
2021/06/17 03:53:14;;;;;;;;;;;17.80;82.70;;;;;;5051258;28;20023;-74
2021/06/17 03:55:42;;;;;;;;;;;17.80;83.40;;;;;;5055892;28;19919;-74
2021/06/17 03:58:07;;;;;;;;;;;17.60;84.20;;;;;;5038258;28;19963;-74
2021/06/17 04:00:33;;;;;;;;;;;17.40;84.70;;;;;;5052742;28;20284;-74
2021/06/17 04:03:00;;;;;;;;;;;17.30;85.40;;;;;;5029486;28;19913;-74
2021/06/17 04:05:26;;;;;;;;;;;17.20;86.00;;;;;;5054015;28;20294;-74
2021/06/17 04:07:56;;;;;;;;;;;17.20;86.10;;;;;;5037067;28;19913;-74
2021/06/17 04:10:22;;;;;;;;;;;17.20;85.80;;;;;;5054500;28;20284;-74
2021/06/17 04:12:49;;;;;;;;;;;17.20;86.00;;;;;;5054729;28;20007;-74
2021/06/17 04:15:15;;;;;;;;;;;17.20;86.50;;;;;;5037557;28;19969;-75
2021/06/17 04:17:42;;;;;;;;;;;17.10;87.40;;;;;;5053339;28;19912;-74
2021/06/17 04:20:10;;;;;;;;;;;17.00;88.40;;;;;;5029578;28;19952;-74
2021/06/17 04:22:38;;;;;;;;;;;17.00;88.80;;;;;;5054797;28;20311;-74
2021/06/17 04:25:05;;;;;;;;;;;17.00;88.20;;;;;;5036199;28;19923;-74
2021/06/17 04:27:31;;;;;;;;;;;17.00;88.60;;;;;;5053288;28;20355;-74
2021/06/17 04:29:58;;;;;;;;;;;16.90;88.60;;;;;;5053595;28;19913;-73
2021/06/17 04:32:24;;;;;;;;;;;17.00;89.20;;;;;;5031091;28;19924;-73
2021/06/17 04:34:50;;;;;;;;;;;16.90;89.30;;;;;;5054709;28;20006;-74
2021/06/17 04:37:18;;;;;;;;;;;16.90;89.40;;;;;;5053543;28;20394;-74
2021/06/17 04:39:44;;;;;;;;;;;17.00;89.20;;;;;;5053424;28;19975;-74
2021/06/17 04:42:12;;;;;;;;;;;17.10;89.20;;;;;;5052407;28;19996;-74
2021/06/17 04:44:42;;;;;;;;;;;17.20;89.10;;;;;;5045154;28;20336;-74
2021/06/17 04:47:08;;;;;;;;;;;17.40;87.80;;;;;;5054576;28;20476;-74
2021/06/17 04:49:37;;;;;;;;;;;17.60;87.10;;;;;;5051821;28;20281;-74
2021/06/17 04:52:04;;;;;;;;;;;17.70;87.40;;;;;;5030919;28;20018;-73
2021/06/17 04:54:30;;;;;;;;;;;17.70;87.60;;;;;;5040563;28;19920;-73
2021/06/17 04:56:55;;;;;;;;;;;17.60;87.80;;;;;;5042586;28;19924;-73
2021/06/17 04:59:21;;;;;;;;;;;17.50;88.20;;;;;;5044220;28;19958;-74
2021/06/17 05:01:47;;;;;;;;;;;17.50;88.60;;;;;;5053270;28;19931;-74
2021/06/17 05:04:14;;;;;;;;;;;17.60;88.70;;;;;;5044239;28;20254;-74
2021/06/17 05:06:42;;;;;;;;;;;17.60;88.70;;;;;;5051884;28;19956;-74
2021/06/17 05:11:53;;;;;;;;;;;17.80;87.80;;;;;;5043885;28;19931;-74
2021/06/17 05:14:19;;;;;;;;;;;17.90;87.60;;;;;;5055225;28;19912;-74
2021/06/17 05:16:45;;;;;;;;;;;18.00;88.00;;;;;;5059836;28;19919;-74
2021/06/17 05:19:10;;;;;;;;;;;18.10;88.40;;;;;;5050372;28;20217;-74
2021/06/17 05:21:36;;;;;;;;;;;18.20;88.30;;;;;;5049120;28;20290;-74
2021/06/17 05:24:02;;;;;;;;;;;18.30;88.60;;;;;;5051743;28;19920;-73
2021/06/17 05:26:28;;;;;;;;;;;18.50;88.80;;;;;;5053329;28;20292;-74
2021/06/17 05:28:54;;;;;;;;;;;18.50;88.20;;;;;;5054435;28;19913;-74
2021/06/17 05:31:23;;;;;;;;;;;18.70;88.50;;;;;;5053908;28;19967;-74
2021/06/17 05:33:48;;;;;;;;;;;18.90;88.30;;;;;;5054541;28;19964;-74
2021/06/17 05:36:15;;;;;;;;;;;19.10;87.40;;;;;;5053771;28;20289;-74
2021/06/17 05:38:41;;;;;;;;;;;19.30;86.20;;;;;;5054899;28;19921;-73
2021/06/17 05:41:06;;;;;;;;;;;19.50;85.50;;;;;;5056842;28;20306;-73
2021/06/17 05:43:32;;;;;;;;;;;19.60;84.70;;;;;;5058444;28;20278;-73
2021/06/17 05:45:58;;;;;;;;;;;19.70;86.00;;;;;;5058345;28;19955;-74
2021/06/17 05:48:23;;;;;;;;;;;19.90;85.50;;;;;;5057595;28;19909;-73
2021/06/17 05:50:49;;;;;;;;;;;20.00;84.90;;;;;;5052291;28;20000;-74
2021/06/17 05:53:14;;;;;;;;;;;20.20;83.60;;;;;;5038376;28;19924;-73
2021/06/17 05:55:40;;;;;;;;;;;20.40;82.60;;;;;;5045605;28;19915;-74
2021/06/17 05:58:05;;;;;;;;;;;20.60;81.00;;;;;;5058586;28;19913;-74
2021/06/17 06:00:31;;;;;;;;;;;20.70;80.20;;;;;;5039581;28;20225;-74
2021/06/17 06:02:57;;;;;;;;;;;21.00;80.50;;;;;;5058057;28;20426;-73
2021/06/17 06:05:22;;;;;;;;;;;21.20;81.20;;;;;;5056746;28;19935;-74
2021/06/17 06:07:55;;;;;;;;;;;21.30;78.70;;;;;;5057183;28;20043;-74
2021/06/17 06:10:20;;;;;;;;;;;21.50;78.20;;;;;;5057363;28;19986;-74
2021/06/17 06:12:49;;;;;;;;;;;21.70;79.90;;;;;;5052688;28;20305;-74
2021/06/17 06:15:14;;;;;;;;;;;21.90;78.40;;;;;;5058026;28;19917;-74
2021/06/17 06:17:40;;;;;;;;;;;22.10;78.30;;;;;;5058282;28;19914;-73
2021/06/17 06:20:05;;;;;;;;;;;22.20;77.90;;;;;;5056573;28;19912;-74
2021/06/17 06:22:31;;;;;;;;;;;22.30;78.40;;;;;;5040299;28;20027;-73
2021/06/17 06:24:56;;;;;;;;;;;22.50;76.30;;;;;;5057931;28;20250;-73
2021/06/17 06:27:22;;;;;;;;;;;22.60;75.00;;;;;;5057832;28;19917;-73
2021/06/17 06:29:48;;;;;;;;;;;22.80;74.50;;;;;;5054619;28;20264;-74
2021/06/17 06:32:13;;;;;;;;;;;22.90;74.90;;;;;;5057733;28;20011;-73
2021/06/17 06:34:39;;;;;;;;;;;23.00;74.60;;;;;;5057393;28;19921;-75
2021/06/17 06:37:04;;;;;;;;;;;23.20;74.50;;;;;;5052047;28;19989;-75
2021/06/17 06:39:30;;;;;;;;;;;23.40;74.30;;;;;;5051953;28;20195;-74
2021/06/17 06:41:55;;;;;;;;;;;23.50;73.40;;;;;;5030212;28;19913;-75
2021/06/17 06:44:24;;;;;;;;;;;23.70;74.00;;;;;;5057726;28;19913;-73
2021/06/17 06:46:53;;;;;;;;;;;23.90;74.90;;;;;;5056157;28;19917;-74
2021/06/17 06:49:19;;;;;;;;;;;24.10;75.70;;;;;;5037537;28;20298;-74
2021/06/17 06:51:45;;;;;;;;;;;24.40;75.10;;;;;;5043096;28;19923;-75
2021/06/17 06:54:11;;;;;;;;;;;24.50;74.00;;;;;;5057463;28;19909;-74
2021/06/17 06:56:36;;;;;;;;;;;24.50;73.20;;;;;;5056329;28;19919;-74
2021/06/17 06:59:03;;;;;;;;;;;24.60;73.50;;;;;;5047324;28;20007;-74
2021/06/17 07:01:28;;;;;;;;;;;24.70;74.10;;;;;;5056845;28;19966;-74
2021/06/17 07:03:54;;;;;;;;;;;24.70;73.70;;;;;;5039551;28;19995;-74
2021/06/17 07:06:20;;;;;;;;;;;24.80;72.10;;;;;;5055878;28;20321;-73
2021/06/17 07:08:45;;;;;;;;;;;24.90;73.40;;;;;;5056126;28;19920;-74
2021/06/17 07:11:11;;;;;;;;;;;25.00;73.20;;;;;;5056818;28;19919;-74
2021/06/17 07:13:37;;;;;;;;;;;25.00;72.50;;;;;;5056982;28;19923;-74
2021/06/17 07:16:05;;;;;;;;;;;25.00;71.70;;;;;;5057014;28;19921;-74
2021/06/17 07:18:30;;;;;;;;;;;25.10;72.10;;;;;;5055988;28;20202;-74
2021/06/17 07:20:56;;;;;;;;;;;25.40;71.90;;;;;;5055111;28;19958;-74
2021/06/17 07:23:21;;;;;;;;;;;25.70;70.70;;;;;;5056846;28;19948;-74
2021/06/17 07:25:47;;;;;;;;;;;26.70;69.30;;;;;;5038776;28;19962;-74
2021/06/17 07:28:12;;;;;;;;;;;27.90;66.20;;;;;;5055612;28;19916;-74
2021/06/17 07:30:38;;;;;;;;;;;29.60;62.30;;;;;;5055258;28;20336;-74
2021/06/17 07:33:03;;;;;;;;;;;30.80;60.40;;;;;;5056160;28;19924;-74
2021/06/17 07:35:29;;;;;;;;;;;31.60;58.30;;;;;;5037994;28;20008;-74
2021/06/17 07:37:55;;;;;;;;;;;32.60;57.30;;;;;;5055921;28;20285;-74
2021/06/17 07:40:20;;;;;;;;;;;32.80;57.10;;;;;;5041137;28;19944;-74
2021/06/17 07:42:47;;;;;;;;;;;32.80;57.30;;;;;;5042150;28;19966;-74
2021/06/17 07:45:13;;;;;;;;;;;32.80;57.90;;;;;;5055959;28;19928;-74
2021/06/17 07:47:39;;;;;;;;;;;32.70;58.00;;;;;;5056374;28;19921;-74
2021/06/17 07:50:06;;;;;;;;;;;32.90;56.90;;;;;;5054719;28;19917;-74
2021/06/17 07:52:31;;;;;;;;;;;32.90;57.30;;;;;;5056050;28;19924;-73
2021/06/17 07:54:57;;;;;;;;;;;32.70;58.30;;;;;;5055871;28;19912;-73
2021/06/17 07:57:23;;;;;;;;;;;33.30;56.50;;;;;;5054615;28;19917;-73
2021/06/17 07:59:48;;;;;;;;;;;32.60;56.80;;;;;;5035174;28;19916;-73
2021/06/17 08:02:14;;;;;;;;;;;32.50;58.60;;;;;;5055371;28;19917;-74
2021/06/17 08:04:39;;;;;;;;;;;32.60;58.80;;;;;;5049448;28;19960;-74
2021/06/17 08:07:05;;;;;;;;;;;33.00;58.10;;;;;;5054762;28;19963;-73
2021/06/17 08:09:31;;;;;;;;;;;33.30;58.10;;;;;;5049857;28;19960;-73
2021/06/17 08:11:57;;;;;;;;;;;34.10;55.80;;;;;;5036124;28;20285;-73
2021/06/17 08:14:24;;;;;;;;;;;35.30;53.70;;;;;;5035963;28;19968;-73
2021/06/17 08:16:50;;;;;;;;;;;36.00;49.50;;;;;;5036185;28;20210;-73
2021/06/17 08:19:16;;;;;;;;;;;36.60;48.10;;;;;;5039163;28;19930;-73
2021/06/17 08:21:42;;;;;;;;;;;37.10;46.70;;;;;;5054817;28;19962;-73
2021/06/17 08:24:08;;;;;;;;;;;37.80;44.60;;;;;;5055754;28;20260;-73
2021/06/17 08:26:35;;;;;;;;;;;38.30;45.20;;;;;;5055799;28;19909;-73
2021/06/17 08:29:00;;;;;;;;;;;38.60;43.00;;;;;;5055028;28;20020;-73
2021/06/17 08:31:28;;;;;;;;;;;38.70;43.20;;;;;;5043874;28;20016;-73
2021/06/17 08:33:54;;;;;;;;;;;38.60;46.50;;;;;;5055578;28;19921;-73
2021/06/17 08:36:19;;;;;;;;;;;35.80;51.70;;;;;;5037062;28;19974;-74
2021/06/17 08:38:46;;;;;;;;;;;35.50;53.70;;;;;;5055481;28;19909;-73
2021/06/17 08:41:12;;;;;;;;;;;35.40;54.90;;;;;;5054854;28;19913;-73
2021/06/17 08:43:37;;;;;;;;;;;35.70;53.40;;;;;;5055463;28;19932;-73
2021/06/17 08:46:03;;;;;;;;;;;35.90;53.90;;;;;;5055721;28;19909;-73
2021/06/17 08:48:28;;;;;;;;;;;36.00;52.90;;;;;;5055702;28;19924;-73
2021/06/17 08:50:54;;;;;;;;;;;35.60;55.00;;;;;;5021581;28;19913;-73
2021/06/17 08:53:20;;;;;;;;;;;36.30;53.60;;;;;;5037429;28;19967;-73
2021/06/17 08:55:49;;;;;;;;;;;36.50;54.80;;;;;;5055184;28;19920;-74
2021/06/17 08:58:15;;;;;;;;;;;36.80;52.70;;;;;;5055523;28;19924;-73
2021/06/17 09:00:46;;;;;;;;;;;36.80;51.60;;;;;;5042410;28;19917;-73
2021/06/17 09:03:13;;;;;;;;;;;37.20;50.40;;;;;;5035067;28;19910;-74
2021/06/17 09:05:40;;;;;;;;;;;37.80;46.70;;;;;;5034399;28;19916;-73
2021/06/17 09:08:07;;;;;;;;;;;38.00;48.90;;;;;;5037743;28;20306;-73
2021/06/17 09:10:33;;;;;;;;;;;38.00;50.80;;;;;;5053174;28;20007;-73
2021/06/17 09:13:00;;;;;;;;;;;37.70;50.70;;;;;;5035262;28;20290;-73
2021/06/17 09:15:32;;;;;;;;;;;37.60;51.00;;;;;;5031821;28;19913;-73
2021/06/17 09:18:07;;;;;;;;;;;38.00;51.70;;;;;;5059400;28;19909;-72
2021/06/17 09:20:33;;;;;;;;;;;38.10;50.40;;;;;;5046347;28;19945;-73
2021/06/17 09:23:15;;;;;;;;;;;36.50;53.10;;;;;;5044157;28;19955;-73
2021/06/17 09:25:52;;;;;;;;;;;34.00;55.40;;;;;;5059209;28;19913;-72
2021/06/17 09:28:19;;;;;;;;;;;32.20;58.50;;;;;;5059197;28;19954;-74
2021/06/17 09:30:45;;;;;;;;;;;31.60;59.50;;;;;;5053103;28;19912;-74
2021/06/17 09:33:12;;;;;;;;;;;31.60;59.20;;;;;;5058162;28;19971;-75
2021/06/17 09:35:47;;;;;;;;;;;32.50;58.10;;;;;;5057329;28;19913;-74
2021/06/17 09:38:13;;;;;;;;;;;34.40;55.30;;;;;;5058887;28;19979;-74
2021/06/17 09:40:40;;;;;;;;;;;35.50;53.10;;;;;;5052823;28;20254;-74
2021/06/17 09:43:11;;;;;;;;;;;36.40;51.10;;;;;;5038849;28;19911;-75
2021/06/17 09:45:37;;;;;;;;;;;36.00;51.80;;;;;;5051590;28;19917;-74
2021/06/17 09:48:02;;;;;;;;;;;36.50;50.30;;;;;;5058504;28;20328;-74
2021/06/17 09:50:28;;;;;;;;;;;36.60;49.90;;;;;;5056777;28;19954;-74
2021/06/17 09:52:54;;;;;;;;;;;36.20;51.20;;;;;;5058747;28;19923;-75
2021/06/17 09:55:40;;;;;;;;;;;36.50;50.40;;;;;;5057872;28;19920;-74
2021/06/17 09:58:11;;;;;;;;;;;36.80;50.10;;;;;;5038606;28;19920;-74
2021/06/17 10:00:51;;;;;;;;;;;36.70;48.90;;;;;;5039709;28;19917;-74
2021/06/17 10:03:17;;;;;;;;;;;36.70;48.20;;;;;;5038518;28;19960;-74
2021/06/17 10:05:43;;;;;;;;;;;36.80;50.60;;;;;;5020887;28;19963;-74
2021/06/17 10:08:08;;;;;;;;;;;36.90;50.20;;;;;;5058445;28;19920;-74
2021/06/17 10:10:36;;;;;;;;;;;37.60;50.10;;;;;;5057661;28;19960;-75
2021/06/17 10:13:04;;;;;;;;;;;37.40;50.60;;;;;;5057823;28;19970;-74
2021/06/17 10:15:30;;;;;;;;;;;37.10;50.20;;;;;;5058129;28;19968;-74
2021/06/17 10:17:56;;;;;;;;;;;36.40;51.90;;;;;;5056859;28;20270;-74
2021/06/17 10:20:22;;;;;;;;;;;35.50;52.20;;;;;;5052042;28;19911;-74
2021/06/17 10:22:57;;;;;;;;;;;34.30;54.50;;;;;;5039239;28;20316;-74
2021/06/17 10:25:24;;;;;;;;;;;33.60;56.10;;;;;;5057153;28;19913;-74
2021/06/17 10:27:50;;;;;;;;;;;34.20;54.20;;;;;;5056533;28;19963;-74
2021/06/17 10:30:16;;;;;;;;;;;35.30;52.70;;;;;;5036231;28;19917;-74
2021/06/17 10:32:45;;;;;;;;;;;36.20;50.30;;;;;;5037867;28;19925;-75
2021/06/17 10:35:24;;;;;;;;;;;36.50;49.50;;;;;;5054431;28;19917;-74
2021/06/17 10:37:51;;;;;;;;;;;36.70;49.70;;;;;;5057747;28;19951;-74
2021/06/17 10:40:19;;;;;;;;;;;36.10;51.10;;;;;;5020687;28;19967;-74
2021/06/17 10:42:44;;;;;;;;;;;35.80;50.20;;;;;;5048743;28;19913;-74
2021/06/17 10:45:10;;;;;;;;;;;36.00;49.10;;;;;;5057664;28;19916;-74
2021/06/17 10:47:46;;;;;;;;;;;35.40;48.00;;;;;;5057477;28;19958;-74
2021/06/17 10:50:16;;;;;;;;;;;34.70;50.40;;;;;;5055854;28;20602;-75
2021/06/17 10:52:42;;;;;;;;;;;34.60;52.20;;;;;;5056975;28;19942;-74
2021/06/17 10:55:18;;;;;;;;;;;34.90;50.40;;;;;;5057600;28;19992;-74
2021/06/17 11:00:24;;;;;;;;;;;35.40;48.70;;;;;;5054446;28;19917;-74
2021/06/17 11:02:54;;;;;;;;;;;35.10;50.50;;;;;;5057374;28;19967;-74
2021/06/17 11:05:33;;;;;;;;;;;34.90;49.40;;;;;;5055736;28;19924;-74
2021/06/17 11:08:14;;;;;;;;;;;34.90;49.60;;;;;;5057004;28;20016;-73
2021/06/17 11:10:49;;;;;;;;;;;35.40;49.30;;;;;;5056605;28;19912;-74
2021/06/17 11:13:32;;;;;;;;;;;35.60;48.50;;;;;;5056552;28;19995;-74
2021/06/17 11:16:21;;;;;;;;;;;35.80;47.00;;;;;;5057136;28;19994;-73
2021/06/17 11:18:54;;;;;;;;;;;35.50;46.70;;;;;;5043419;28;19913;-74
2021/06/17 11:21:23;;;;;;;;;;;35.90;49.20;;;;;;5050982;28;19944;-74
2021/06/17 11:23:53;;;;;;;;;;;35.80;46.60;;;;;;5044792;28;19939;-74
2021/06/17 11:26:37;;;;;;;;;;;35.60;47.80;;;;;;5055659;28;20030;-73
2021/06/17 11:29:04;;;;;;;;;;;35.30;47.80;;;;;;5055662;28;19916;-74
2021/06/17 11:31:37;;;;;;;;;;;35.00;47.70;;;;;;5055608;28;19912;-74
2021/06/17 11:34:03;;;;;;;;;;;34.90;47.40;;;;;;5055770;28;20294;-73
2021/06/17 11:36:29;;;;;;;;;;;34.70;48.50;;;;;;5054886;28;20012;-73
2021/06/17 11:38:54;;;;;;;;;;;34.60;48.20;;;;;;5056343;28;19913;-74
2021/06/17 11:41:21;;;;;;;;;;;34.50;49.70;;;;;;5052057;28;19948;-74
2021/06/17 11:43:54;;;;;;;;;;;35.00;49.10;;;;;;5052009;28;19921;-74
2021/06/17 11:46:20;;;;;;;;;;;35.10;49.30;;;;;;5025847;28;19921;-74
2021/06/17 11:48:53;;;;;;;;;;;35.30;49.40;;;;;;5037097;28;19913;-74
2021/06/17 11:51:19;;;;;;;;;;;35.60;48.40;;;;;;5050412;28;19959;-74
2021/06/17 11:53:49;;;;;;;;;;;35.70;49.50;;;;;;5052585;28;20263;-74
2021/06/17 11:56:22;;;;;;;;;;;35.80;48.70;;;;;;5056188;28;19956;-73
2021/06/17 11:58:47;;;;;;;;;;;35.70;47.00;;;;;;5052816;28;19935;-74
2021/06/17 12:01:13;;;;;;;;;;;35.20;46.90;;;;;;5043990;28;20031;-74
2021/06/17 12:03:38;;;;;;;;;;;34.60;50.10;;;;;;5039246;28;19945;-74
2021/06/17 12:06:13;;;;;;;;;;;35.30;48.80;;;;;;5022147;28;20004;-74
2021/06/17 12:08:39;;;;;;;;;;;35.20;47.90;;;;;;5053090;28;19914;-74
2021/06/17 12:11:25;;;;;;;;;;;35.20;48.20;;;;;;5049885;28;20008;-73
2021/06/17 12:13:51;;;;;;;;;;;35.60;48.10;;;;;;5054923;28;19927;-72
2021/06/17 12:16:17;;;;;;;;;;;35.30;46.80;;;;;;5051662;28;20276;-73
2021/06/17 12:18:43;;;;;;;;;;;35.20;48.10;;;;;;5050337;28;19959;-73
2021/06/17 12:21:09;;;;;;;;;;;35.50;49.50;;;;;;5052551;28;19941;-73
2021/06/17 12:23:34;;;;;;;;;;;35.70;47.20;;;;;;5047111;28;19919;-73
2021/06/17 12:26:09;;;;;;;;;;;35.40;47.30;;;;;;5055922;28;20363;-73
2021/06/17 12:28:51;;;;;;;;;;;35.40;47.90;;;;;;5055075;28;19921;-73
2021/06/17 12:31:27;;;;;;;;;;;35.30;48.90;;;;;;5037502;28;20412;-73
2021/06/17 12:34:03;;;;;;;;;;;35.90;46.70;;;;;;5056798;28;19924;-73
2021/06/17 12:36:29;;;;;;;;;;;36.00;46.80;;;;;;5054671;28;19909;-73
2021/06/17 12:39:06;;;;;;;;;;;35.60;46.50;;;;;;5050286;28;20031;-74
2021/06/17 12:41:38;;;;;;;;;;;35.40;48.50;;;;;;5023301;28;19919;-73
2021/06/17 12:44:04;;;;;;;;;;;35.20;48.30;;;;;;5050312;28;19913;-73
2021/06/17 12:46:37;;;;;;;;;;;35.70;49.10;;;;;;5052433;28;19920;-73
2021/06/17 12:54:35;;;;;;;;;;;35.90;47.90;;;;;;5045704;28;19920;-72
2021/06/17 12:57:04;;;;;;;;;;;35.90;49.70;;;;;;5054159;28;19912;-72
2021/06/17 12:59:39;;;;;;;;;;;36.30;47.40;;;;;;5044803;28;20302;-72
2021/06/17 13:02:06;;;;;;;;;;;35.90;48.40;;;;;;5052632;28;19925;-72
2021/06/17 13:04:31;;;;;;;;;;;36.40;48.60;;;;;;5054252;28;19923;-72
2021/06/17 13:06:59;;;;;;;;;;;37.00;44.50;;;;;;5052784;28;19916;-71
2021/06/17 13:09:28;;;;;;;;;;;37.00;45.00;;;;;;5049130;28;20353;-72
2021/06/17 13:12:05;;;;;;;;;;;36.80;44.70;;;;;;5038100;28;19917;-72
2021/06/17 13:14:30;;;;;;;;;;;37.40;45.70;;;;;;5052629;28;19960;-71
2021/06/17 13:17:03;;;;;;;;;;;37.40;46.00;;;;;;5054151;28;21452;-71
2021/06/17 13:19:28;;;;;;;;;;;37.40;47.00;;;;;;5052839;28;19921;-72
2021/06/17 13:22:01;;;;;;;;;;;37.30;45.10;;;;;;5053566;28;19959;-72
2021/06/17 13:24:26;;;;;;;;;;;37.10;47.40;;;;;;5054836;28;19959;-72
2021/06/17 13:27:24;;;;;;;;;;;37.40;44.90;;;;;;5054743;28;19952;-71
2021/06/17 13:29:54;;;;;;;;;;;37.30;46.20;;;;;;5020098;28;19913;-72
2021/06/17 13:32:19;;;;;;;;;;;37.40;44.80;;;;;;5053773;28;19958;-72
2021/06/17 13:34:46;;;;;;;;;;;37.30;45.80;;;;;;5054296;28;19916;-72
2021/06/17 13:37:12;;;;;;;;;;;37.30;45.60;;;;;;5049385;28;19923;-72
2021/06/17 13:39:37;;;;;;;;;;;37.70;44.60;;;;;;5053634;28;20252;-72
2021/06/17 13:42:03;;;;;;;;;;;38.10;45.50;;;;;;5053958;28;20328;-72
2021/06/17 13:44:31;;;;;;;;;;;38.40;46.90;;;;;;5052712;28;19921;-72
2021/06/17 13:46:56;;;;;;;;;;;38.20;48.20;;;;;;5045863;28;19913;-72
2021/06/17 13:49:22;;;;;;;;;;;38.80;43.70;;;;;;5050214;28;19924;-72
2021/06/17 13:51:49;;;;;;;;;;;38.40;45.60;;;;;;5054012;28;19913;-72
2021/06/17 13:54:21;;;;;;;;;;;37.90;45.30;;;;;;5047886;28;19940;-72
2021/06/17 13:56:47;;;;;;;;;;;37.80;46.60;;;;;;5053252;28;19919;-72
2021/06/17 13:59:13;;;;;;;;;;;37.80;48.00;;;;;;5054419;28;20000;-72
2021/06/17 14:01:38;;;;;;;;;;;38.50;43.70;;;;;;5057009;28;20262;-72
2021/06/17 14:04:04;;;;;;;;;;;38.80;46.40;;;;;;5054139;28;19962;-72
2021/06/17 14:06:29;;;;;;;;;;;39.20;42.80;;;;;;5056368;28;19948;-72
2021/06/17 14:08:55;;;;;;;;;;;38.30;43.30;;;;;;5057927;28;19913;-72
2021/06/17 14:11:21;;;;;;;;;;;37.70;43.80;;;;;;5058438;28;19908;-72
2021/06/17 14:13:47;;;;;;;;;;;37.70;44.80;;;;;;5057239;28;19925;-72
2021/06/17 14:16:12;;;;;;;;;;;38.40;43.40;;;;;;5043783;28;20333;-72
2021/06/17 14:18:38;;;;;;;;;;;38.60;44.80;;;;;;5057357;28;19912;-72
2021/06/17 14:21:06;;;;;;;;;;;38.50;45.80;;;;;;5056617;28;20198;-72
2021/06/17 14:23:32;;;;;;;;;;;37.80;45.20;;;;;;5057712;28;19913;-72
2021/06/17 14:25:57;;;;;;;;;;;38.00;45.20;;;;;;5032792;28;19975;-72
2021/06/17 14:28:23;;;;;;;;;;;38.60;43.50;;;;;;5039217;28;19917;-72
2021/06/17 14:30:48;;;;;;;;;;;38.70;45.30;;;;;;5057366;28;19924;-72